マナウス の空港の天気 - METARとTAF

エドワルド ゴメス国際空港(マナウス) ( SBEG / MAO ) - ブラジル アマゾナス州マナウス
飛行場実況気象(Metar)
観測時間08/25 15:00 AMT (08/25 19:00 UTC)
風向・風速北北東 3m/s
視程10km以上
天気現象
全天の4割程度の雲 雲底高度 760m
少しの雲 雲底高度 910m
気温33℃
湿度49%
気圧1010hPa
METARSBEG 251900Z 03006KT 9999 SCT025 FEW030TCU 33/21 Q1010
過去の天気等 Google飛行場航空写真 Wunderground天気予報

過去48時間のMETAR

飛行場予報(TAF)
発表時間: 8/25 11:00 AMT (8/25 15:00 UTC)
予報対象時間: 25日14時 AMT ~ 26日14時 AMT
風向・風速南 3m/s
視程10km以上
全天の4割程度の雲 雲底高度 910m
25日15時 AMT ~ 25日18時 AMT に徐々に
風向・風速南 4m/s
25日20時 AMT ~ 25日22時 AMT に徐々に
風向・風速北西 3m/s
視程10km以上
なし
26日5時 AMT ~ 26日7時 AMT に徐々に
風向・風速北北東 3m/s
26日10時 AMT ~ 26日12時 AMT に徐々に
風向・風速南 3m/s
全天の4割程度の雲 雲底高度 610m
TAF SBEG 251500Z 2518/2618 18005KT 9999 SCT030 TN23/2609Z TX31/2618Z
BECMG 2519/2522 17007KT
BECMG 2600/2602 31005KT CAVOK
BECMG 2609/2611 03005KT
BECMG 2614/2616 18005KT SCT020 RMK PGY